Cameron Station, Virginia
Current Conditions -  °F | °C
As of 4:52 AM on Saturday 25 Oct 2014 (Local Time) from KDCA Reporting Station
Clear Clear  
Wind Chill: 52°   Ceiling: Unl
Heat Index: 52°   Visibility: 10mi
Dew Point: 38°   Wind: 5mph
Humidity: 59%   Direction: 20°NNE
Pressure: 29.96"   Gusts: NA
Location:  38.8134°N, 77.1153°W
Report Text: KDCA 250852Z 02004KT 10SM CLR 11/03 A2996 RMK AO2 SLP143 T01110033 $
Loading
Personal Weather Stations






























Interactive Weather Map
Tropical Storm Tracking
New forecast layout! Learn more

10-Day Weather Forecast

Advertisements
Track Severe Weather on mobile